Millfield, Ohio
Current Conditions -  °F | °C
As of 8:15 AM on Thursday 27 Nov 2014 (Local Time) from KUNI Reporting Station
Overcast Overcast  
Wind Chill: 24°   Ceiling: 3500
Heat Index: 31°   Visibility: 7mi
Dew Point: 26°   Wind: 7mph
Humidity: 83%   Direction: 300°WNW
Pressure: 30.12"   Gusts: NA
Location:  39.43°N, 82.1°W
Report Text: KUNI 271315Z AUTO 30006KT 7SM OVC035 M01/M03 A3012 RMK AO2 T10061031
Loading
Personal Weather Stations






























Interactive Weather Map New forecast layout! Learn more

10-Day Weather Forecast

Advertisements
Track Severe Weather on mobile